Tiempo atmosférico en la estación meteorológica de Cáseda, Navarra (440 m.)



Fecha
DESCASC
Temp. máxima en grados centígrados (hora)
DESCASC
Temp. mínima en grados centígrados (hora)
DESCASC
Temp. media en grados centígrados
DESCASC
Racha de viento máxima en m/sg (hora)
DESCASC
Velocidad máxima media en intervalos de 10 minutos(hora)
DESCASC
Precipitaciones diarias en mm
DESCASC
Precipitaciones de 00:00 a 06:00 en mm
DESCASC
Precipitaciones de 06:00 a 12:00 en mm
DESCASC
Precipitaciones de 12:00 a 18:00 en mm
DESCASC
Precipitaciones de 18:00 a 24:00 en mm
DESCASC
19-04-2018 23 (15:20) 9.6 (07:40) 16.3 12.78 (15:20) 8.06 (14:50) 0 0 0 0 0
18-04-2018 24.3 (15:10) 7.2 (07:20) 15.7 11.11 (15:50) 6.67 (18:00) 0 0 0 0 0
17-04-2018 22.6 (16:40) 3.7 (07:20) 13.2 6.11 (14:10) 4.72 (20:50) 0 0 0 0 0
16-04-2018 17.4 (17:00) 8.3 (23:59) 12.8 9.44 (11:10) 4.72 (12:40) 15.2 13.6 1.6 0 0
15-04-2018 19.9 (16:50) 4.5 (00:00) 12.2 7.22 (17:30) 4.17 (17:30) 0 0 0 0 0
14-04-2018 18.2 (17:40) 4.8 (00:00) 11.5 6.67 (16:20) 4.17 (15:30) 2 2 0 0 0
13-04-2018 13.9 (18:30) 6.1 (00:00) 10 10 (16:00) 6.39 (16:00) 2.8 0.4 2.2 0.2 0
12-04-2018 14.6 (18:20) 3.8 (00:00) 9.2 7.22 (00:10) 4.17 (00:10) 8.6 5 3.6 0 0
11-04-2018 10.1 (15:40) 3.3 (00:00) 6.7 11.94 (17:10) 5.83 (17:10) 34.4 5.8 1.8 1 25.8
10-04-2018 7.7 (17:40) 3.9 (00:00) 5.8 13.33 (15:20) 8.06 (15:10) 16.8 1.4 1.6 9.8 4
09-04-2018 11 (16:50) 2.1 (00:00) 6.5 8.06 (18:10) 5.28 (18:10) 1.8 0 0.8 1 0
08-04-2018 13.8 (19:00) 6.3 (00:00) 10.1 6.39 (16:00) 3.61 (15:30) 22.2 15.2 6.6 0.4 0
07-04-2018 12.8 (00:00) 8.8 (00:00) 10.8 11.67 (10:50) 6.11 (10:40) 37.8 4.8 1.4 3.2 28.4
06-04-2018 22.7 (16:20) 6.3 (00:00) 14.5 13.61 (18:00) 7.78 (16:30) 1.8 0 0 0 1.8
05-04-2018 19.5 (17:20) 7.7 (00:00) 13.6 7.5 (16:50) 4.72 (16:50) 0.4 0.4 0 0 0
04-04-2018 18.2 (17:10) 8.7 (00:00) 13.5 12.78 (11:20) 7.5 (12:10) 1 0 0 0 1
03-04-2018 19.5 (16:00) 10.1 (00:00) 14.8 20 (21:30) 10 (14:40) 0 0 0 0 0
02-04-2018 18.6 (17:30) 7 (00:00) 12.8 13.33 (15:20) 7.5 (13:10) 0 0 0 0 0
01-04-2018 17.6 (16:20) 0.1 (00:00) 8.9 7.22 (16:20) 4.72 (16:20) 0 0 0 0 0
31-03-2018 12.2 (16:20) 3.9 (00:00) 8 18.33 (07:50) 9.17 (07:10) 3.4 0.8 2.4 0.2 0
30-03-2018 13.7 (17:50) 4.5 (00:00) 9.1 15 (06:20) 7.5 (06:20) 0.6 0 0.6 0 0
29-03-2018 16.6 (18:00) 6.1 (00:00) 11.4 7.78 (14:00) 4.17 (00:30) 0.6 0.4 0 0.2 0
28-03-2018 18.8 (16:50) 3.6 (00:00) 11.2 6.94 (20:20) 3.61 (15:00) 0 0 0 0 0
27-03-2018 15.5 (17:40) 4.7 (00:00) 10.1 10 (14:20) 5.83 (17:50) 0 0 0 0 0
26-03-2018 11.5 (15:00) 5.3 (00:00) 8.4 12.5 (16:40) 6.39 (16:40) 0 0 0 0 0
25-03-2018 11.2 (17:00) 2.9 (00:00) 7 9.44 (17:30) 5.83 (15:00) 0.2 0.2 0 0 0
24-03-2018 11 (15:10) 2.5 (00:00) 6.8 14.17 (16:30) 5.83 (13:40) 6.6 6.4 0 0.2 0
23-03-2018 13.4 (15:40) -0.4 (00:00) 6.5 7.5 (22:10) 4.17 (22:50) 3.4 0 0 0 3.4

Gráficas

Temp. máximas Temp. mínimas Temp. medias Precipitaciones Rachas de viento máximas Velocidades máximas media en intervalos de 10 minutos

Datos horarios

Fecha y hora oficial Temperatura (ºC) Velocidad del viento (km/h) Dirección del viento Racha (km/h) Dirección de racha Precipitación (mm) Presión (hPa) Tendencia (hPa) Humedad (%)
2018-04-21 23:00:00 14.9 5 Sudoeste 9 Sur 0 -- -- 66
2018-04-21 22:00:00 16.3 3 Norte 14 Sur 0 -- -- 63
2018-04-21 21:00:00 17 11 Sur 15 Sur 0 -- -- 58
2018-04-21 20:00:00 18.4 9 Sur 16 Sur 0 -- -- 56
2018-04-21 19:00:00 20.1 10 Sur 20 Sur 0 -- -- 54
2018-04-21 18:00:00 21.1 13 Sur 27 Sur 0 -- -- 50
2018-04-21 17:00:00 21.7 15 Sur 35 Sur 0 -- -- 46
2018-04-21 16:00:00 21.6 20 Sur 35 Sudeste 0 -- -- 48
2018-04-21 15:00:00 22.7 19 Sur 36 Sur 0 -- -- 45
2018-04-21 14:00:00 22.3 21 Sur 35 Sur 0 -- -- 48
2018-04-21 13:00:00 21.5 21 Sur 39 Sur 0 -- -- 48
2018-04-21 12:00:00 20.4 17 Sur 28 Sur 0 -- -- 61
2018-04-21 11:00:00 16.5 4 Norte 9 Noroeste 0 -- -- 63
2018-04-21 10:00:00 13.2 5 Noroeste 8 Noroeste 0 -- -- 76
2018-04-21 09:00:00 10.8 3 Norte 5 Noroeste 0 -- -- 82
2018-04-21 08:00:00 8.3 3 Sur 8 Sur 0 -- -- 90
2018-04-21 07:00:00 8.2 5 Sur 9 Sur 0 -- -- 89
2018-04-21 06:00:00 8.4 2 Este 8 Sur 0 -- -- 88
2018-04-21 05:00:00 9.5 0 Calma 10 Sur 0 -- -- 84
2018-04-21 04:00:00 10 4 Sudoeste 9 Oeste 0 -- -- 83
2018-04-21 03:00:00 10.4 5 Sudoeste 10 Oeste 0 -- -- 82
2018-04-21 02:00:00 11.5 3 Norte 5 Nordeste 0 -- -- 75
2018-04-21 01:00:00 12.2 3 Sudoeste 7 Sudoeste 0 -- -- 73
2018-04-21 00:00:00 13 3 Oeste 7 Nordeste 0 -- -- 74
2018-04-20 23:00:00 15.4 3 Este 15 Sudeste 0 -- -- 62
2018-04-20 22:00:00 17.1 3 Sudeste 25 Sur 0 -- -- 57
2018-04-20 21:00:00 18.4 19 Sur 31 Sur 0 -- -- 54
2018-04-20 20:00:00 20.2 17 Sur 39 Sur 0 -- -- 51
2018-04-20 19:00:00 21.5 23 Sur 37 Sur 0 -- -- 47
2018-04-20 18:00:00 22.4 23 Sur 36 Sudoeste 0 -- -- 44
2018-04-20 17:00:00 22.5 24 Sur 44 Sur 0 -- -- 48
2018-04-20 16:00:00 23 24 Sur 41 Sur 0 -- -- 47
2018-04-20 15:00:00 22.8 22 Sudoeste 37 Sur 0 -- -- 49
2018-04-20 14:00:00 22.2 21 Sur 36 Sur 0 -- -- 53
2018-04-20 13:00:00 21.1 17 Sudoeste 28 Sudoeste 0 -- -- 56
2018-04-20 12:00:00 20.3 13 Sur 25 Sur 0 -- -- 58
2018-04-20 11:00:00 17.8 7 Noroeste 11 Noroeste 0 -- -- 63
2018-04-20 10:00:00 15.7 2 Noroeste 6 Este 0 -- -- 69
2018-04-20 09:00:00 13.7 2 Sudeste 7 Sur 0 -- -- 78
2018-04-20 08:00:00 10.5 2 Oeste 8 Sudoeste 0 -- -- 86
2018-04-20 07:00:00 11 3 Sudoeste 8 Sudoeste 0 -- -- 82
2018-04-20 06:00:00 11.7 4 Sudoeste 9 Sudoeste 0 -- -- 80
2018-04-20 05:00:00 12.4 5 Sudoeste 12 Sudoeste 0 -- -- 77
2018-04-20 04:00:00 12.8 5 Sudoeste 8 Sudoeste 0 -- -- 80
2018-04-20 03:00:00 12.7 2 Nordeste 6 Oeste 0 -- -- 83
2018-04-20 02:00:00 12.8 3 Noroeste 6 Sudeste 0 -- -- 79
2018-04-20 01:00:00 13.5 3 Sudeste 9 Sur 0 -- -- 75
2018-04-20 00:00:00 15.2 2 Norte 16 Sudeste 0 -- -- 69
2018-04-19 23:00:00 16.5 3 Sur 15 Sudeste 0 -- -- 65
2018-04-19 22:00:00 17.4 2 Este 17 Sur 0 -- -- 60
2018-04-19 21:00:00 18.7 11 Sudeste 28 Sur 0 -- -- 56
2018-04-19 20:00:00 20.2 17 Sur 37 Sudeste 0 -- -- 50
2018-04-19 19:00:00 21.5 21 Sur 34 Sudeste 0 -- -- 45
2018-04-19 18:00:00 22.4 19 Sur 41 Sur 0 -- -- 46
2018-04-19 17:00:00 22.7 24 Sur 44 Sudoeste 0 -- -- 49
2018-04-19 16:00:00 22.9 27 Sur 46 Sudoeste 0 -- -- 46
2018-04-19 15:00:00 22.8 25 Sudoeste 44 Sur 0 -- -- 46
2018-04-19 14:00:00 22.4 22 Sur 39 Sur 0 -- -- 49
2018-04-19 13:00:00 22 23 Sur 35 Sur 0 -- -- 48
2018-04-19 12:00:00 21.4 17 Sudoeste 30 Sudoeste 0 -- -- 53
2018-04-19 11:00:00 17.8 4 Norte 8 Norte 0 -- -- 62
2018-04-19 10:00:00 14.8 3 Noroeste 5 Norte 0 -- -- 69
2018-04-19 09:00:00 12.6 0 Calma 4 Nordeste 0 -- -- 79
2018-04-19 08:00:00 9.7 2 Este 6 Este 0 -- -- 83
2018-04-19 07:00:00 9.7 0 Calma 7 Sudoeste 0 -- -- 82
2018-04-19 06:00:00 10.3 3 Sudoeste 6 Sudoeste 0 -- -- 80
2018-04-19 05:00:00 10.2 0 Calma 3 Sudoeste 0 -- -- 82
2018-04-19 04:00:00 11 0 Calma 6 Este 0 -- -- 79
2018-04-19 03:00:00 11.6 3 Sur 7 Sudoeste 0 -- -- 77
2018-04-19 02:00:00 11.9 3 Este 6 Sudeste 0 -- -- 76
2018-04-19 01:00:00 12.8 2 Sur 5 Sudeste 0 -- -- 72
2018-04-19 00:00:00 13.9 3 Oeste 10 Oeste 0 -- -- 68
2018-04-18 23:00:00 15 6 Noroeste 9 Noroeste 0 -- -- 64
2018-04-18 22:00:00 17.1 4 Norte 11 Sudeste 0 -- -- 56
2018-04-18 21:00:00 19.3 4 Sudeste 20 Sur 0 -- -- 45
2018-04-18 20:00:00 22.1 14 Sur 31 Sur 0 -- -- 38
2018-04-18 19:00:00 23.2 18 Sur 35 Sur 0 -- -- 37
2018-04-18 18:00:00 23.4 24 Sur 40 Sur 0 -- -- 42
2018-04-18 17:00:00 23.6 22 Sur 37 Sur 0 -- -- 40
2018-04-18 16:00:00 24.1 22 Sur 40 Sur 0 -- -- 44
2018-04-18 15:00:00 24.2 21 Sur 38 Sur 0 -- -- 42
2018-04-18 14:00:00 23.7 18 Sur 36 Sur 0 -- -- 44
2018-04-18 13:00:00 22.5 12 Sur 26 Sur 0 -- -- 59
2018-04-18 12:00:00 18.4 4 Norte 8 Noroeste 0 -- -- 66
2018-04-18 11:00:00 15 3 Noroeste 7 Noroeste 0 -- -- 71
2018-04-18 10:00:00 11.9 3 Noroeste 5 Noroeste 0 -- -- 83
2018-04-18 09:00:00 9.2 0 Calma 4 Nordeste 0 -- -- 89
2018-04-18 08:00:00 7.5 0 Calma 5 Sudoeste 0 -- -- 94
2018-04-18 07:00:00 7.6 0 Calma 4 Sur 0 -- -- 93
2018-04-18 06:00:00 7.8 0 Calma 4 Sur 0 -- -- 92
2018-04-18 05:00:00 8.8 0 Calma 5 Sudoeste 0 -- -- 91
2018-04-18 04:00:00 9.3 4 Sudeste 5 Este 0 -- -- 88
2018-04-18 03:00:00 9.7 3 Sur 5 Sudoeste 0 -- -- 85
2018-04-18 02:00:00 10.5 3 Oeste 8 Sudoeste 0 -- -- 84
2018-04-18 01:00:00 11.4 2 Oeste 6 Sur 0 -- -- 81
2018-04-18 00:00:00 12.6 2 Norte 6 Este 0 -- -- 77
2018-04-17 23:00:00 13.8 3 Sudeste 5 Sur 0 -- -- 71
2018-04-17 22:00:00 15.7 0 Calma 21 Sur 0 -- -- 61
2018-04-17 21:00:00 16.7 16 Sur 22 Sur 0 -- -- 63
2018-04-17 20:00:00 19.5 16 Sur 22 Sur 0 -- -- 57
2018-04-17 19:00:00 21.6 12 Sur 21 Sur 0 -- -- 52
2018-04-17 18:00:00 22.2 13 Sur 21 Sur 0 -- -- 49
2018-04-17 17:00:00 22.4 13 Sur 21 Sur 0 -- -- 50
2018-04-17 16:00:00 22 12 Sur 20 Sudoeste 0 -- -- 50
2018-04-17 15:00:00 21 6 Sudeste 22 Sur 0 -- -- 50
2018-04-17 14:00:00 19.8 9 Sur 18 Sur 0 -- -- 54
2018-04-17 13:00:00 17.4 4 Nordeste 9 Nordeste 0 -- -- 61
2018-04-17 12:00:00 14.2 4 Nordeste 7 Norte 0 -- -- 74
2018-04-17 11:00:00 10.9 3 Nordeste 6 Nordeste 0 -- -- 83
2018-04-17 10:00:00 7.8 3 Norte 6 Nordeste 0 -- -- 97
2018-04-17 09:00:00 5.4 0 Calma 3 Este 0 -- -- 97
2018-04-17 08:00:00 4.1 0 Calma 4 Sur 0 -- -- 96
2018-04-17 07:00:00 4.3 0 Calma 3 Nordeste 0 -- -- 95
2018-04-17 06:00:00 4.9 3 Sur 6 Sudoeste 0 -- -- 95
2018-04-17 05:00:00 5.1 0 Calma 5 Sudeste 0 -- -- 94
2018-04-17 04:00:00 5.7 3 Noroeste 6 Sudeste 0 -- -- 93
2018-04-17 03:00:00 6.1 2 Sur 6 Sudoeste 0 -- -- 93
2018-04-17 02:00:00 6.5 3 Sudoeste 8 Sudoeste 0 -- -- 91
2018-04-17 01:00:00 7.1 6 Sudoeste 8 Sudoeste 0 -- -- 88
2018-04-17 00:00:00 8.3 6 Sudeste 10 Sudeste 0 -- -- 86
2018-04-16 23:00:00 9.4 5 Este 7 Este 0 -- -- 81
2018-04-16 22:00:00 10.5 3 Sudeste 9 Sudoeste 0 -- -- 77
2018-04-16 21:00:00 12.3 5 Oeste 15 Noroeste 0 -- -- 72
2018-04-16 20:00:00 15.5 4 Noroeste 14 Norte 0 -- -- 62
2018-04-16 19:00:00 15.2 9 Norte 19 Norte 0 -- -- 62
2018-04-16 18:00:00 15.3 12 Noroeste 24 Nordeste 0 -- -- 63
2018-04-16 17:00:00 17.4 9 Norte 22 Noroeste 0 -- -- 58
2018-04-16 16:00:00 16.1 10 Norte 24 Noroeste 0 -- -- 64
2018-04-16 15:00:00 15.6 13 Norte 31 Norte 0 -- -- 61
2018-04-16 14:00:00 13.2 10 Norte 30 Norte 0 -- -- 67
2018-04-16 13:00:00 12.1 15 Norte 33 Norte 0 -- -- 68
2018-04-16 12:00:00 11.3 11 Norte 34 Noroeste 0 -- -- 73
2018-04-16 11:00:00 10.5 14 Noroeste 32 Noroeste 0 -- -- 77
2018-04-16 10:00:00 10 11 Norte 23 Norte 0 -- -- 80
2018-04-16 09:00:00 9.4 4 Noroeste 15 Norte 0 -- -- 82
2018-04-16 08:00:00 9 5 Sur 18 Nordeste 0 -- -- 88
2018-04-16 07:00:00 9.1 6 Noroeste 16 Noroeste 1.6 -- -- 89
2018-04-16 06:00:00 9.1 9 Nordeste 17 Nordeste 1.8 -- -- 90
2018-04-16 05:00:00 9.3 4 Oeste 17 Nordeste 3 -- -- 90
2018-04-16 04:00:00 9.5 5 Nordeste 13 Nordeste 5.2 -- -- 94
2018-04-16 03:00:00 10.3 4 Nordeste 14 Sudoeste 3.6 -- -- 92
2018-04-16 02:00:00 10.9 6 Este 14 Este 0 -- -- 83
2018-04-16 01:00:00 10.7 8 Sudeste 13 Este 0 -- -- 86
2018-04-16 00:00:00 11.3 4 Sudoeste 12 Este 0 -- -- 83
2018-04-15 23:00:00 12.3 8 Sudeste 10 Este 0 -- -- 81
2018-04-15 22:00:00 13.3 7 Este 14 Sudeste 0 -- -- 77
2018-04-15 21:00:00 14.3 5 Este 14 Nordeste 0 -- -- 76
2018-04-15 20:00:00 15.6 10 Norte 21 Norte 0 -- -- 69
2018-04-15 19:00:00 17 7 Norte 23 Oeste 0 -- -- 65
2018-04-15 18:00:00 18.5 13 Oeste 26 Oeste 0 -- -- 55
2018-04-15 17:00:00 19.9 13 Noroeste 24 Noroeste 0 -- -- 50
2018-04-15 16:00:00 18.5 4 Oeste 15 Oeste 0 -- -- 56
2018-04-15 15:00:00 17.5 9 Noroeste 18 Oeste 0 -- -- 60
2018-04-15 14:00:00 17.3 5 Nordeste 11 Nordeste 0 -- -- 63
2018-04-15 13:00:00 13.7 6 Nordeste 9 Nordeste 0 -- -- 75
2018-04-15 12:00:00 11.9 3 Noroeste 7 Nordeste 0 -- -- 76
2018-04-15 11:00:00 10.5 4 Norte 7 Nordeste 0 -- -- 79
2018-04-15 10:00:00 8.6 2 Norte 6 Este 0 -- -- 87
2018-04-15 09:00:00 7.3 2 Sudoeste 9 Sur 0 -- -- 95
2018-04-15 08:00:00 5.4 3 Sudoeste 6 Sur 0 -- -- 96
2018-04-15 07:00:00 5 0 Calma 10 Sur 0 -- -- 95
2018-04-15 06:00:00 5.4 5 Sur 8 Sur 0 -- -- 94
2018-04-15 05:00:00 6 3 Sudoeste 6 Sur 0 -- -- 93
2018-04-15 04:00:00 6.2 4 Oeste 6 Oeste 0 -- -- 93
2018-04-15 03:00:00 6.7 2 Sur 6 Este 0 -- -- 88
2018-04-15 02:00:00 7.1 3 Este 10 Sur 0 -- -- 88
2018-04-15 01:00:00 7.7 4 Sudoeste 14 Oeste 0 -- -- 86
2018-04-15 00:00:00 8.7 2 Noroeste 6 Oeste 0 -- -- 83
2018-04-14 23:00:00 9.9 0 Calma 9 Sur 0 -- -- 79
2018-04-14 22:00:00 11.3 4 Oeste 16 Sudoeste 0 -- -- 73
2018-04-14 21:00:00 12.6 11 Sur 16 Sur 0 -- -- 71
2018-04-14 20:00:00 16.6 9 Sudoeste 18 Sudoeste 0 -- -- 54
2018-04-14 19:00:00 17.7 10 Sudoeste 21 Sur 0 -- -- 46
2018-04-14 18:00:00 18.1 9 Sur 23 Sur 0 -- -- 45
2018-04-14 17:00:00 17.9 8 Oeste 24 Oeste 0 -- -- 48
2018-04-14 16:00:00 17.3 7 Oeste 22 Oeste 0 -- -- 52
2018-04-14 15:00:00 16.1 9 Noroeste 14 Noroeste 0 -- -- 58
2018-04-14 14:00:00 15.8 7 Noroeste 14 Norte 0 -- -- 63
2018-04-14 13:00:00 14 7 Noroeste 14 Noroeste 0 -- -- 68
2018-04-14 12:00:00 11.9 4 Noroeste 9 Nordeste 0 -- -- 76
2018-04-14 11:00:00 9.7 4 Este 8 Este 0 -- -- 83
2018-04-14 10:00:00 8.4 6 Este 9 Este 0 -- -- 88
2018-04-14 09:00:00 6.8 4 Este 6 Este 0 -- -- 95
2018-04-14 08:00:00 4.8 4 Sur 6 Sudoeste 0 -- -- 96
2018-04-14 07:00:00 4.9 4 Sudoeste 9 Sudoeste 0 -- -- 95
2018-04-14 06:00:00 5.3 6 Sur 10 Sur 0 -- -- 94
2018-04-14 05:00:00 6.1 4 Sudoeste 8 Oeste 0 -- -- 94
2018-04-14 04:00:00 6.2 6 Oeste 12 Sudeste 0 -- -- 93
2018-04-14 03:00:00 6.8 9 Sudeste 12 Sudeste 0.2 -- -- 93
2018-04-14 02:00:00 7.7 4 Sur 9 Oeste 0 -- -- 92
2018-04-14 01:00:00 8.4 3 Sudoeste 19 Sur 1.8 -- -- 87
2018-04-14 00:00:00 8.9 5 Sur 18 Oeste 0 -- -- 84
2018-04-13 23:00:00 10 14 Oeste 22 Oeste 0 -- -- 76
2018-04-13 22:00:00 9.6 2 Sudoeste 10 Sur 0 -- -- 82
2018-04-13 21:00:00 10.2 4 Sur 12 Sur 0 -- -- 79
2018-04-13 20:00:00 12.8 7 Este 14 Este 0 -- -- 69
2018-04-13 19:00:00 13.2 10 Este 19 Este 0 -- -- 70
2018-04-13 18:00:00 13.1 13 Nordeste 23 Nordeste 0 -- -- 70
2018-04-13 17:00:00 12.3 8 Este 34 Este 0 -- -- 74
2018-04-13 16:00:00 12.4 23 Nordeste 36 Este 0 -- -- 73
2018-04-13 15:00:00 11.3 17 Este 28 Sudeste 0 -- -- 76
2018-04-13 14:00:00 10 8 Este 22 Este 0 -- -- 85
2018-04-13 13:00:00 10.2 9 Nordeste 15 Este 0.2 -- -- 87
2018-04-13 12:00:00 9.2 2 Norte 8 Este 0 -- -- 95
2018-04-13 11:00:00 8.5 4 Este 6 Este 0.4 -- -- 95
2018-04-13 10:00:00 8 2 Oeste 5 Noroeste 1.2 -- -- 96
2018-04-13 09:00:00 7.6 2 Oeste 6 Sudoeste 0.4 -- -- 95
2018-04-13 08:00:00 7.2 4 Sudoeste 6 Sudoeste 0.2 -- -- 94
2018-04-13 07:00:00 7.2 3 Sudeste 15 Sudeste 0 -- -- 94
2018-04-13 06:00:00 7.2 4 Sur 8 Sur 0.4 -- -- 94
2018-04-13 05:00:00 6.9 4 Oeste 8 Oeste 0 -- -- 91
2018-04-13 04:00:00 6.4 5 Oeste 10 Sudoeste 0 -- -- 91
2018-04-13 03:00:00 6.3 5 Oeste 8 Oeste 0 -- -- 90
2018-04-13 02:00:00 7.1 5 Oeste 8 Sudoeste 0 -- -- 89
2018-04-13 01:00:00 7.1 5 Oeste 9 Sudoeste 0 -- -- 90
2018-04-13 00:00:00 7.8 3 Noroeste 9 Sudoeste 0 -- -- 87
2018-04-12 23:00:00 8.9 5 Oeste 7 Sudoeste 0 -- -- 83
2018-04-12 22:00:00 9.2 6 Sudoeste 12 Sur 0 -- -- 80
2018-04-12 21:00:00 10 7 Sur 13 Sur 0 -- -- 77
2018-04-12 20:00:00 13.3 5 Sur 9 Este 0 -- -- 71
2018-04-12 19:00:00 14.3 4 Este 11 Sur 0 -- -- 60
2018-04-12 18:00:00 14.3 3 Este 12 Nordeste 0 -- -- 61
2018-04-12 17:00:00 13 3 Este 9 Oeste 0 -- -- 72
2018-04-12 16:00:00 11.8 6 Noroeste 22 Oeste 0 -- -- 76
2018-04-12 15:00:00 12.6 8 Noroeste 19 Noroeste 0 -- -- 72
2018-04-12 14:00:00 12.1 10 Noroeste 19 Noroeste 0 -- -- 79
2018-04-12 13:00:00 10.2 2 Norte 6 Noroeste 0 -- -- 87
2018-04-12 12:00:00 9.9 0 Calma 9 Nordeste 0 -- -- 90
2018-04-12 11:00:00 8.1 5 Nordeste 8 Nordeste 0.2 -- -- 99
2018-04-12 10:00:00 5.4 0 Calma 5 Sudoeste 0.4 -- -- 98
2018-04-12 09:00:00 4.5 0 Calma 4 Noroeste 0.8 -- -- 98
2018-04-12 08:00:00 4.1 0 Calma 4 Nordeste 0.8 -- -- 98
2018-04-12 07:00:00 4 0 Calma 3 Este 1.4 -- -- 98
2018-04-12 06:00:00 4 2 Este 4 Este 0 -- -- 98
2018-04-12 05:00:00 4 0 Calma 5 Nordeste 0 -- -- 97
2018-04-12 04:00:00 4.1 0 Calma 4 Norte 0.2 -- -- 97
2018-04-12 03:00:00 4.1 0 Calma 5 Sudeste 1.2 -- -- 97
2018-04-12 02:00:00 4.1 3 Este 9 Nordeste 0.6 -- -- 97
2018-04-12 01:00:00 4.4 5 Oeste 26 Oeste 3 -- -- 97
2018-04-12 00:00:00 3.8 3 Este 22 Oeste 5 -- -- 96
2018-04-11 23:00:00 3.4 0 Calma 7 Sudoeste 4.8 -- -- 95
2018-04-11 22:00:00 3.3 4 Noroeste 22 Este 5 -- -- 94
2018-04-11 21:00:00 3.7 12 Este 31 Este 4.8 -- -- 93
2018-04-11 20:00:00 5.1 8 Este 27 Este 5 -- -- 93
2018-04-11 19:00:00 7.6 13 Este 25 Noroeste 1.2 -- -- 90
2018-04-11 18:00:00 8.7 14 Noroeste 43 Norte 1 -- -- 88
2018-04-11 17:00:00 9.8 19 Norte 39 Norte 0 -- -- 78
2018-04-11 16:00:00 10 18 Noroeste 39 Norte 0 -- -- 76
2018-04-11 15:00:00 9.8 18 Norte 34 Noroeste 0 -- -- 77
2018-04-11 14:00:00 9.4 11 Norte 24 Noroeste 0 -- -- 77
2018-04-11 13:00:00 9.4 17 Norte 37 Norte 0 -- -- 79
2018-04-11 12:00:00 8.9 11 Norte 32 Norte 0 -- -- 82
2018-04-11 11:00:00 7.9 14 Norte 41 Noroeste 0 -- -- 82
2018-04-11 10:00:00 6.6 15 Noroeste 29 Noroeste 0.2 -- -- 87
2018-04-11 09:00:00 5.6 4 Norte 18 Noroeste 0.4 -- -- 91
2018-04-11 08:00:00 5.1 6 Norte 17 Norte 0.6 -- -- 91
2018-04-11 07:00:00 4.7 7 Norte 17 Norte 0.6 -- -- 92
2018-04-11 06:00:00 4.8 7 Norte 21 Nordeste 0.2 -- -- 90
2018-04-11 05:00:00 5 9 Norte 21 Noroeste 1.6 -- -- 91
2018-04-11 04:00:00 5.1 0 Calma 6 Oeste 1.6 -- -- 95
2018-04-11 03:00:00 5.1 4 Sudoeste 5 Oeste 1.8 -- -- 94
2018-04-11 02:00:00 5.3 4 Nordeste 6 Nordeste 0.4 -- -- 92
2018-04-11 01:00:00 5.5 2 Norte 21 Este 0.2 -- -- 93
2018-04-11 00:00:00 5.7 8 Este 13 Este 0.6 -- -- 94
2018-04-10 23:00:00 6 5 Nordeste 19 Este 1 -- -- 95
2018-04-10 22:00:00 6.4 4 Este 14 Este 0.4 -- -- 94
2018-04-10 21:00:00 6.3 6 Este 21 Este 1 -- -- 94
2018-04-10 20:00:00 7.3 7 Este 30 Sudeste 0.2 -- -- 89
2018-04-10 19:00:00 7.7 11 Sudeste 35 Sudeste 0.8 -- -- 87
2018-04-10 18:00:00 7.7 17 Sudeste 36 Sudeste 1.2 -- -- 87
2018-04-10 17:00:00 7.6 20 Sudeste 39 Sudeste 2.2 -- -- 88
2018-04-10 16:00:00 7.6 24 Sudeste 48 Sudeste 1.8 -- -- 88
2018-04-10 15:00:00 7.4 27 Sudeste 47 Sudeste 1.2 -- -- 87
2018-04-10 14:00:00 7.3 17 Sudeste 39 Sur 1.8 -- -- 87
2018-04-10 13:00:00 7.3 13 Sudeste 37 Sudeste 1.6 -- -- 87
2018-04-10 12:00:00 7.3 24 Sudeste 39 Sudeste 0.2 -- -- 85
2018-04-10 11:00:00 7.1 21 Sudeste 40 Sudeste 0.2 -- -- 87
2018-04-10 10:00:00 6.2 6 Este 17 Sur 1.2 -- -- 94
2018-04-10 09:00:00 4.9 6 Oeste 13 Oeste 0 -- -- 95
2018-04-10 08:00:00 4.5 5 Oeste 9 Sudoeste 0 -- -- 96
2018-04-10 07:00:00 4.3 4 Oeste 6 Oeste 0 -- -- 96
2018-04-10 06:00:00 4 4 Sudoeste 7 Sudoeste 0 -- -- 95
2018-04-10 05:00:00 4 2 Sudoeste 8 Oeste 0 -- -- 94
2018-04-10 04:00:00 4 3 Sur 10 Sudoeste 0 -- -- 92
2018-04-10 03:00:00 5.1 3 Sudoeste 8 Oeste 0.2 -- -- 92
2018-04-10 02:00:00 5.3 5 Sur 7 Sur 0.4 -- -- 92
2018-04-10 01:00:00 5.4 3 Nordeste 9 Oeste 0.8 -- -- 90
2018-04-10 00:00:00 5.7 4 Sudoeste 14 Sudoeste 0 -- -- 84
2018-04-09 23:00:00 5.7 10 Sudoeste 15 Sudoeste 0 -- -- 81
2018-04-09 22:00:00 6.9 12 Oeste 22 Oeste 0 -- -- 76
2018-04-09 21:00:00 8.1 11 Oeste 22 Oeste 0 -- -- 77
2018-04-09 20:00:00 9.3 12 Oeste 24 Oeste 0 -- -- 72
2018-04-09 19:00:00 9.2 12 Oeste 29 Sudoeste 0 -- -- 73
2018-04-09 18:00:00 10.5 16 Oeste 26 Oeste 0 -- -- 68
2018-04-09 17:00:00 10.7 4 Norte 14 Este 0 -- -- 70
2018-04-09 16:00:00 10.2 6 Nordeste 16 Nordeste 0 -- -- 76
2018-04-09 15:00:00 8.7 3 Sudeste 25 Sudoeste 0.2 -- -- 84
2018-04-09 14:00:00 8 11 Sudoeste 24 Sur 0.8 -- -- 89
2018-04-09 13:00:00 7.2 2 Norte 8 Nordeste 0 -- -- 93
2018-04-09 12:00:00 6.6 2 Sudeste 15 Sudoeste 0.8 -- -- 93
2018-04-09 11:00:00 6.3 4 Este 11 Sudeste 0 -- -- 88
2018-04-09 10:00:00 5.1 3 Sudoeste 5 Noroeste 0 -- -- 89
2018-04-09 09:00:00 4.3 3 Noroeste 5 Oeste 0 -- -- 94
2018-04-09 08:00:00 2.6 3 Oeste 6 Oeste 0 -- -- 96
2018-04-09 07:00:00 2.2 4 Oeste 8 Sudoeste 0 -- -- 95
2018-04-09 06:00:00 2.4 3 Sur 7 Sudoeste 0 -- -- 94
2018-04-09 05:00:00 2.5 3 Sudoeste 8 Sudoeste 0 -- -- 94
2018-04-09 04:00:00 3.5 2 Norte 4 Norte 0 -- -- 91
2018-04-09 03:00:00 4 0 Calma 4 Sudeste 0 -- -- 91
2018-04-09 02:00:00 5.1 0 Calma 6 Sudeste 0 -- -- 88
2018-04-09 01:00:00 5.6 4 Este 5 Este 0 -- -- 86
2018-04-09 00:00:00 7.3 3 Este 10 Sudeste 0 -- -- 77
2018-04-08 23:00:00 8.1 10 Sudeste 14 Sudeste 0 -- -- 76
2018-04-08 22:00:00 8.6 4 Sudeste 6 Sur 0 -- -- 78
2018-04-08 21:00:00 10.1 3 Oeste 8 Sudoeste 0 -- -- 73
2018-04-08 20:00:00 12.4 4 Nordeste 20 Norte 0 -- -- 67
2018-04-08 19:00:00 13.8 8 Norte 20 Norte 0 -- -- 59
2018-04-08 18:00:00 13 10 Norte 21 Norte 0.2 -- -- 63
2018-04-08 17:00:00 12.8 11 Norte 21 Nordeste 0 -- -- 67
2018-04-08 16:00:00 12.3 13 Norte 23 Norte 0 -- -- 71
2018-04-08 15:00:00 11.4 8 Nordeste 14 Nordeste 0 -- -- 80
2018-04-08 14:00:00 10 4 Nordeste 9 Nordeste 0 -- -- 86
2018-04-08 13:00:00 8.6 4 Nordeste 6 Este 0.2 -- -- 90
2018-04-08 12:00:00 8.1 3 Sudeste 6 Este 0.4 -- -- 88
2018-04-08 11:00:00 7.5 2 Sudeste 6 Sudeste 0.6 -- -- 92
2018-04-08 10:00:00 6.7 5 Este 8 Este 1.4 -- -- 95
2018-04-08 09:00:00 6.3 6 Este 10 Este 1 -- -- 94
2018-04-08 08:00:00 6.5 2 Este 8 Norte 1.6 -- -- 93
2018-04-08 07:00:00 6.8 4 Norte 9 Nordeste 1.6 -- -- 95
2018-04-08 06:00:00 7.4 4 Este 6 Sur 2.6 -- -- 96
2018-04-08 05:00:00 7.6 4 Sur 5 Sudeste 1.6 -- -- 96
2018-04-08 04:00:00 7.7 2 Sudeste 11 Sur 2.8 -- -- 96
2018-04-08 03:00:00 7.9 9 Sur 12 Sur 1.8 -- -- 96
2018-04-08 02:00:00 8.4 3 Nordeste 6 Este 2.8 -- -- 96
2018-04-08 01:00:00 8.8 3 Norte 8 Sudoeste 3.6 -- -- 95
2018-04-08 00:00:00 8.9 4 Sudoeste 14 Sudoeste 4.8 -- -- 95
2018-04-07 23:00:00 8.8 6 Sudoeste 10 Sudoeste 5.2 -- -- 94
2018-04-07 22:00:00 9.1 6 Oeste 23 Oeste 4.4 -- -- 93
2018-04-07 21:00:00 9.4 10 Oeste 16 Oeste 4.2 -- -- 94
2018-04-07 20:00:00 10.2 2 Sudoeste 7 Sudeste 5.4 -- -- 95
2018-04-07 19:00:00 10.3 4 Este 10 Oeste 4.4 -- -- 93
2018-04-07 18:00:00 10.8 3 Sudoeste 7 Sudoeste 0.4 -- -- 92
2018-04-07 17:00:00 10.4 5 Oeste 9 Oeste 0.8 -- -- 91
2018-04-07 16:00:00 10.3 6 Sudeste 10 Oeste 1.8 -- -- 90
2018-04-07 15:00:00 10.7 5 Sudoeste 13 Oeste 0.2 -- -- 86
2018-04-07 14:00:00 10.4 4 Sur 10 Sudoeste 0 -- -- 86
2018-04-07 13:00:00 10.4 4 Sudoeste 9 Este 0 -- -- 88
2018-04-07 12:00:00 10.6 7 Noroeste 36 Sudoeste 1.2 -- -- 82
2018-04-07 11:00:00 11.1 19 Sudoeste 42 Sur 0 -- -- 72
2018-04-07 10:00:00 11.3 18 Sur 30 Sudoeste 0 -- -- 74
2018-04-07 09:00:00 10.2 16 Sudoeste 24 Sur 0 -- -- 83
2018-04-07 08:00:00 9.4 14 Sudoeste 27 Sur 0.2 -- -- 88
2018-04-07 07:00:00 9.6 14 Sur 22 Sur 0 -- -- 86
2018-04-07 06:00:00 10.5 14 Sudoeste 25 Sur 0 -- -- 83
2018-04-07 05:00:00 10.2 3 Sudoeste 10 Sudeste 0 -- -- 88
2018-04-07 04:00:00 10.1 6 Sudoeste 16 Oeste 0 -- -- 90
2018-04-07 03:00:00 10 5 Oeste 12 Sudoeste 1 -- -- 92
2018-04-07 02:00:00 10.3 6 Sudoeste 18 Sur 2 -- -- 88
2018-04-07 01:00:00 11.5 16 Sudoeste 32 Sudeste 1.8 -- -- 79
2018-04-07 00:00:00 12.8 14 Noroeste 36 Este 0.2 -- -- 71
2018-04-06 23:00:00 12.9 22 Sur 38 Sur 0 -- -- 68
2018-04-06 22:00:00 12.2 5 Norte 21 Este 0 -- -- 77
2018-04-06 21:00:00 12.1 7 Oeste 15 Noroeste 0.6 -- -- 82
2018-04-06 20:00:00 12.9 5 Nordeste 23 Este 0.2 -- -- 80
2018-04-06 19:00:00 13.8 8 Nordeste 35 Sur 0.8 -- -- 78
2018-04-06 18:00:00 17 25 Sur 49 Sur 0 -- -- 52
2018-04-06 17:00:00 20.2 21 Sur 42 Sur 0 -- -- 41
2018-04-06 16:00:00 22.3 20 Sudeste 41 Sudeste 0 -- -- 33
2018-04-06 15:00:00 20.8 22 Sudeste 46 Sudeste 0 -- -- 38
2018-04-06 14:00:00 20.7 24 Sur 48 Sudeste 0 -- -- 37
2018-04-06 13:00:00 20.2 22 Sur 42 Sur 0 -- -- 37
2018-04-06 12:00:00 18.8 21 Sur 40 Sur 0 -- -- 42
2018-04-06 11:00:00 16.9 14 Sur 27 Sur 0 -- -- 50
2018-04-06 10:00:00 13.5 8 Sudeste 22 Sur 0 -- -- 63
2018-04-06 09:00:00 8.7 3 Noroeste 6 Noroeste 0 -- -- 75
2018-04-06 08:00:00 6.5 3 Sudeste 8 Sudeste 0 -- -- 80
2018-04-06 07:00:00 7.3 3 Este 12 Sudoeste 0 -- -- 77
2018-04-06 06:00:00 8.6 5 Sudoeste 16 Oeste 0 -- -- 74
2018-04-06 05:00:00 9 8 Oeste 12 Oeste 0 -- -- 74
2018-04-06 04:00:00 7.2 3 Este 8 Sudeste 0 -- -- 78
2018-04-06 03:00:00 7.7 0 Calma 13 Sur 0 -- -- 76
2018-04-06 02:00:00 8.3 3 Sur 7 Sudoeste 0 -- -- 74
2018-04-06 01:00:00 9.1 3 Sudoeste 9 Sudeste 0 -- -- 70
2018-04-06 00:00:00 9.6 6 Sudoeste 10 Oeste 0 -- -- 68
2018-04-05 23:00:00 10.5 8 Oeste 11 Oeste 0 -- -- 66
2018-04-05 22:00:00 11.8 7 Sudoeste 13 Sudoeste 0 -- -- 56
2018-04-05 21:00:00 13.1 10 Sur 15 Sur 0 -- -- 54
2018-04-05 20:00:00 16.7 8 Sur 22 Sur 0 -- -- 47
2018-04-05 19:00:00 18.6 10 Sudeste 24 Sudeste 0 -- -- 42
2018-04-05 18:00:00 18.9 12 Sur 27 Sudeste 0 -- -- 39
2018-04-05 17:00:00 19.1 13 Sur 27 Sudoeste 0 -- -- 47
2018-04-05 16:00:00 18.6 15 Sur 26 Sudeste 0 -- -- 49
2018-04-05 15:00:00 17.4 6 Sudeste 15 Este 0 -- -- 46
2018-04-05 14:00:00 16.1 9 Nordeste 17 Nordeste 0 -- -- 56
2018-04-05 13:00:00 14.8 8 Este 18 Este 0 -- -- 60
2018-04-05 12:00:00 12.8 5 Nordeste 10 Este 0 -- -- 68
2018-04-05 11:00:00 12.1 5 Nordeste 7 Nordeste 0 -- -- 73
2018-04-05 10:00:00 9.5 2 Noroeste 5 Nordeste 0 -- -- 82
2018-04-05 09:00:00 8.7 4 Nordeste 7 Sudeste 0 -- -- 87
2018-04-05 08:00:00 7.8 4 Sudeste 12 Este 0 -- -- 84
2018-04-05 07:00:00 8.2 6 Este 10 Este 0 -- -- 83
2018-04-05 06:00:00 7.8 2 Sur 6 Sur 0 -- -- 85
2018-04-05 05:00:00 8.2 0 Calma 6 Sudeste 0 -- -- 84
2018-04-05 04:00:00 8.6 0 Calma 7 Este 0 -- -- 87
2018-04-05 03:00:00 8.7 4 Este 17 Este 0 -- -- 88
2018-04-05 02:00:00 8.7 4 Sudeste 8 Este 0.2 -- -- 88
2018-04-05 01:00:00 9 4 Este 14 Este 0.2 -- -- 85
2018-04-05 00:00:00 9 8 Sudeste 21 Norte 0 -- -- 84
2018-04-04 23:00:00 10.1 14 Noroeste 31 Noroeste 1 -- -- 82
2018-04-04 22:00:00 11.1 7 Sudeste 15 Nordeste 0 -- -- 76
2018-04-04 21:00:00 12.1 3 Sur 21 Nordeste 0 -- -- 69
2018-04-04 20:00:00 15.2 8 Oeste 31 Oeste 0 -- -- 52
2018-04-04 19:00:00 16.7 22 Oeste 37 Oeste 0 -- -- 46
2018-04-04 18:00:00 16.8 9 Oeste 34 Oeste 0 -- -- 47
2018-04-04 17:00:00 17.9 15 Oeste 39 Oeste 0 -- -- 42
2018-04-04 16:00:00 16 18 Oeste 32 Oeste 0 -- -- 48
2018-04-04 15:00:00 15.8 18 Oeste 34 Oeste 0 -- -- 46
2018-04-04 14:00:00 15.7 14 Oeste 36 Sur 0 -- -- 45
2018-04-04 13:00:00 16.2 18 Sudoeste 40 Sur 0 -- -- 47
2018-04-04 12:00:00 15.7 25 Sur 46 Sur 0 -- -- 53
2018-04-04 11:00:00 14.2 22 Sur 40 Sur 0 -- -- 56
2018-04-04 10:00:00 12.7 21 Sur 39 Sur 0 -- -- 58
2018-04-04 09:00:00 10.5 23 Sur 38 Sudoeste 0 -- -- 64
2018-04-04 08:00:00 8.9 22 Sur 33 Sudoeste 0 -- -- 66
2018-04-04 07:00:00 9.4 22 Sudoeste 30 Sudoeste 0 -- -- 63
2018-04-04 06:00:00 9.4 17 Sudoeste 36 Sudoeste 0 -- -- 65
2018-04-04 05:00:00 10 21 Sudoeste 35 Sudoeste 0 -- -- 66
2018-04-04 04:00:00 11.3 9 Sudoeste 28 Sur 0 -- -- 62
2018-04-04 03:00:00 12.6 10 Sudoeste 20 Sudoeste 0 -- -- 59
2018-04-04 02:00:00 13.1 12 Oeste 30 Oeste 0 -- -- 58
2018-04-04 01:00:00 14 17 Oeste 39 Sudoeste 0 -- -- 55
2018-04-04 00:00:00 14.8 18 Sudoeste 50 Sur 0 -- -- 49
2018-04-03 23:00:00 15.7 17 Sudoeste 49 Sur 0 -- -- 47
2018-04-03 22:00:00 15.5 9 Sudoeste 72 Sur 0 -- -- 48
2018-04-03 21:00:00 15.8 15 Sur 36 Sur 0 -- -- 44
2018-04-03 20:00:00 16.9 24 Sur 44 Sur 0 -- -- 41
2018-04-03 19:00:00 17.3 23 Sur 52 Sur 0 -- -- 42
2018-04-03 18:00:00 19.2 29 Sur 50 Sur 0 -- -- 39
2018-04-03 17:00:00 17.3 24 Sur 54 Sur 0 -- -- 51
2018-04-03 16:00:00 19.5 32 Sur 60 Sur 0 -- -- 42
2018-04-03 15:00:00 18.8 29 Sur 57 Sur 0 -- -- 42
2018-04-03 14:00:00 18.4 20 Sur 42 Sur 0 -- -- 48
2018-04-03 13:00:00 16.5 21 Sur 48 Sudeste 0 -- -- 55
2018-04-03 12:00:00 17.1 27 Sur 46 Sur 0 -- -- 57
2018-04-03 11:00:00 14.4 26 Sur 45 Sur 0 -- -- 62
2018-04-03 10:00:00 14.5 24 Sur 45 Sur 0 -- -- 62
2018-04-03 09:00:00 12.7 14 Sur 37 Sur 0 -- -- 68
2018-04-03 08:00:00 11.7 19 Sur 39 Sur 0 -- -- 72
2018-04-03 07:00:00 11.9 29 Sur 42 Sur 0 -- -- 68
2018-04-03 06:00:00 12 12 Sur 26 Sudeste 0 -- -- 57
2018-04-03 05:00:00 10.1 6 Sur 10 Sudeste 0 -- -- 64
2018-04-03 04:00:00 12.1 6 Este 28 Sur 0 -- -- 57
2018-04-03 03:00:00 13.2 18 Sur 27 Sudeste 0 -- -- 48
2018-04-03 02:00:00 10.7 3 Norte 10 Oeste 0 -- -- 60
2018-04-03 01:00:00 10.8 6 Oeste 10 Noroeste 0 -- -- 58
2018-04-03 00:00:00 10.6 4 Sur 11 Oeste 0 -- -- 56
2018-04-02 23:00:00 10.8 6 Sudoeste 14 Sudoeste 0 -- -- 53
2018-04-02 22:00:00 12.2 5 Oeste 10 Noroeste 0 -- -- 49
2018-04-02 21:00:00 14.4 10 Noroeste 27 Sur 0 -- -- 44
2018-04-02 20:00:00 16 18 Sur 42 Sur 0 -- -- 37
2018-04-02 19:00:00 17.7 10 Sudeste 43 Sur 0 -- -- 35
2018-04-02 18:00:00 18.1 25 Sudeste 40 Sudeste 0 -- -- 34
2018-04-02 17:00:00 18.3 23 Sur 39 Sur 0 -- -- 35
2018-04-02 16:00:00 17 10 Sudeste 48 Sudeste 0 -- -- 38
2018-04-02 15:00:00 17.4 21 Sur 40 Sur 0 -- -- 34
2018-04-02 14:00:00 18 23 Sur 45 Sur 0 -- -- 32
2018-04-02 13:00:00 16.6 23 Sur 34 Sur 0 -- -- 36
2018-04-02 12:00:00 13.5 6 Noroeste 11 Noroeste 0 -- -- 51
2018-04-02 11:00:00 11.8 5 Noroeste 10 Noroeste 0 -- -- 58
2018-04-02 10:00:00 9.7 0 Calma 9 Sur 0 -- -- 66
2018-04-02 09:00:00 8.1 0 Calma 14 Sudoeste 0 -- -- 66
2018-04-02 08:00:00 7.5 3 Nordeste 10 Sur 0 -- -- 77
2018-04-02 07:00:00 8.7 2 Este 6 Sudeste 0 -- -- 67
2018-04-02 06:00:00 9.3 2 Este 8 Sudoeste 0 -- -- 68
2018-04-02 05:00:00 9.3 4 Sudoeste 9 Sur 0 -- -- 69
2018-04-02 04:00:00 9.1 6 Sudoeste 9 Oeste 0 -- -- 71
2018-04-02 03:00:00 9.3 5 Oeste 12 Sur 0 -- -- 74
2018-04-02 02:00:00 10.5 3 Sur 11 Sur 0 -- -- 65
2018-04-02 01:00:00 10.1 8 Oeste 12 Sudoeste 0 -- -- 71
2018-04-02 00:00:00 9.9 4 Sudoeste 10 Sur 0 -- -- 72
2018-04-01 23:00:00 10.6 5 Oeste 8 Oeste 0 -- -- 70
2018-04-01 22:00:00 11.4 3 Sudoeste 11 Sudoeste 0 -- -- 65
2018-04-01 21:00:00 12.4 4 Sudoeste 13 Sudoeste 0 -- -- 59
2018-04-01 20:00:00 14.9 2 Sur 17 Sur 0 -- -- 54
2018-04-01 19:00:00 15.8 13 Sur 21 Sur 0 -- -- 50
2018-04-01 18:00:00 16.3 12 Sudeste 23 Sur 0 -- -- 49
2018-04-01 17:00:00 17.1 11 Sur 26 Sur 0 -- -- 47
2018-04-01 16:00:00 17.3 13 Sur 24 Sudeste 0 -- -- 47
2018-04-01 15:00:00 15.7 7 Sur 17 Sur 0 -- -- 53
2018-04-01 14:00:00 14.1 6 Nordeste 13 Nordeste 0 -- -- 53
2018-04-01 13:00:00 12.3 5 Norte 12 Nordeste 0 -- -- 56
2018-04-01 12:00:00 9.8 4 Norte 9 Norte 0 -- -- 65
2018-04-01 11:00:00 6.6 5 Norte 8 Norte 0 -- -- 71
2018-04-01 10:00:00 4.6 4 Norte 6 Norte 0 -- -- 80
2018-04-01 09:00:00 1.2 0 Calma 8 Sudeste 0 -- -- 92
2018-04-01 08:00:00 0.2 2 Sudeste 5 Sudeste 0 -- -- 92
2018-04-01 07:00:00 0.4 4 Sudeste 8 Sur 0 -- -- 91
2018-04-01 06:00:00 0.7 0 Calma 6 Sudoeste 0 -- -- 89
2018-04-01 05:00:00 1.6 2 Noroeste 6 Sudoeste 0 -- -- 86
2018-04-01 04:00:00 2.6 3 Este 7 Sudeste 0 -- -- 83
2018-04-01 03:00:00 3.2 2 Sudeste 6 Sudeste 0 -- -- 81
2018-04-01 02:00:00 3.7 6 Sur 11 Sur 0 -- -- 78
2018-04-01 01:00:00 4.6 7 Sudeste 10 Sudeste 0 -- -- 74
2018-04-01 00:00:00 6.2 7 Noroeste 18 Oeste 0 -- -- 66
2018-03-31 23:00:00 6.5 8 Sudoeste 21 Sudeste 0 -- -- 66
2018-03-31 22:00:00 5.5 6 Sudoeste 16 Norte 0 -- -- 74
2018-03-31 21:00:00 7.4 9 Norte 22 Nordeste 0 -- -- 67
2018-03-31 20:00:00 8.4 9 Norte 39 Nordeste 0 -- -- 64
2018-03-31 19:00:00 10.2 16 Norte 50 Noroeste 0 -- -- 55
2018-03-31 18:00:00 10.7 30 Noroeste 59 Noroeste 0.2 -- -- 52
2018-03-31 17:00:00 11.4 19 Norte 50 Noroeste 0 -- -- 48
2018-03-31 16:00:00 10.8 12 Norte 46 Noroeste 0 -- -- 55
2018-03-31 15:00:00 10.4 18 Noroeste 51 Noroeste 0 -- -- 54
2018-03-31 14:00:00 10 24 Noroeste 42 Noroeste 0 -- -- 55
2018-03-31 13:00:00 8.5 27 Noroeste 47 Noroeste 0 -- -- 61
2018-03-31 12:00:00 7.1 16 Noroeste 31 Noroeste 0 -- -- 69
2018-03-31 11:00:00 4.4 21 Noroeste 54 Oeste 0.6 -- -- 85
2018-03-31 10:00:00 5.2 9 Oeste 35 Noroeste 0 -- -- 80
2018-03-31 09:00:00 4.3 11 Oeste 44 Oeste 1 -- -- 85
2018-03-31 08:00:00 4.2 24 Oeste 66 Oeste 0.6 -- -- 86
2018-03-31 07:00:00 6 28 Oeste 54 Oeste 0.2 -- -- 66
2018-03-31 06:00:00 5.8 21 Oeste 43 Oeste 0 -- -- 68
2018-03-31 05:00:00 5.8 9 Oeste 28 Sudoeste 0 -- -- 67
2018-03-31 04:00:00 5.6 14 Oeste 23 Oeste 0 -- -- 66
2018-03-31 03:00:00 5.5 17 Oeste 35 Sudoeste 0 -- -- 70
2018-03-31 02:00:00 6.1 17 Sudoeste 36 Sudoeste 0.8 -- -- 77
2018-03-31 01:00:00 8.6 17 Sudoeste 32 Sudoeste 0 -- -- 58
2018-03-31 00:00:00 9.3 17 Sudoeste 37 Sur 0 -- -- 49
2018-03-30 23:00:00 8.9 15 Sudoeste 26 Sur 0 -- -- 46
2018-03-30 22:00:00 9.5 12 Sur 31 Sudoeste 0 -- -- 40
2018-03-30 21:00:00 9.5 19 Sudoeste 36 Sudoeste 0 -- -- 42
2018-03-30 20:00:00 11 12 Sudoeste 33 Sur 0 -- -- 42
2018-03-30 19:00:00 12.9 8 Sur 23 Sudeste 0 -- -- 39
2018-03-30 18:00:00 13.2 14 Sur 30 Sur 0 -- -- 38
2018-03-30 17:00:00 13.1 17 Sur 32 Sur 0 -- -- 39
2018-03-30 16:00:00 13.6 15 Sur 29 Sudoeste 0 -- -- 42
2018-03-30 15:00:00 11.9 7 Oeste 29 Oeste 0 -- -- 43
2018-03-30 14:00:00 11 10 Oeste 31 Oeste 0 -- -- 46
2018-03-30 13:00:00 9.7 15 Oeste 39 Oeste 0 -- -- 49
2018-03-30 12:00:00 10 16 Oeste 37 Oeste 0 -- -- 49
2018-03-30 11:00:00 9 18 Oeste 48 Oeste 0.2 -- -- 52
2018-03-30 10:00:00 8 14 Oeste 30 Oeste 0 -- -- 61
2018-03-30 09:00:00 6.5 6 Sudoeste 13 Sur 0 -- -- 70
2018-03-30 08:00:00 4.9 8 Sudoeste 31 Oeste 0 -- -- 79
2018-03-30 07:00:00 6 22 Oeste 54 Sudoeste 0.4 -- -- 80
2018-03-30 06:00:00 8 22 Sur 30 Sur 0 -- -- 65
2018-03-30 05:00:00 9.2 22 Sur 32 Sudoeste 0 -- -- 58
2018-03-30 04:00:00 9.3 22 Sur 35 Sur 0 -- -- 58
2018-03-30 03:00:00 9.2 22 Sur 33 Sur 0 -- -- 52
2018-03-30 02:00:00 8.8 12 Sur 18 Sur 0 -- -- 57
2018-03-30 01:00:00 6.3 2 Sudoeste 9 Noroeste 0 -- -- 78
2018-03-30 00:00:00 6.8 0 Calma 7 Noroeste 0 -- -- 74
2018-03-29 23:00:00 7.1 3 Oeste 8 Sudeste 0 -- -- 69
2018-03-29 22:00:00 8.6 0 Calma 14 Sudoeste 0 -- -- 63
2018-03-29 21:00:00 9.7 14 Sur 17 Sur 0 -- -- 59
2018-03-29 20:00:00 14.6 6 Oeste 17 Oeste 0 -- -- 44
2018-03-29 19:00:00 16.1 9 Oeste 22 Sudoeste 0 -- -- 37
2018-03-29 18:00:00 16.6 7 Oeste 22 Oeste 0 -- -- 40
2018-03-29 17:00:00 15.2 6 Norte 21 Oeste 0 -- -- 44
2018-03-29 16:00:00 14.9 6 Sur 23 Sudoeste 0 -- -- 47
2018-03-29 15:00:00 14.5 11 Sudoeste 23 Oeste 0 -- -- 49
2018-03-29 14:00:00 13.3 15 Oeste 28 Oeste 0 -- -- 52
2018-03-29 13:00:00 12.5 7 Noroeste 15 Nordeste 0.2 -- -- 60
2018-03-29 12:00:00 10.5 6 Este 13 Este 0 -- -- 72
2018-03-29 11:00:00 9.6 8 Este 12 Este 0 -- -- 79
2018-03-29 10:00:00 8.3 5 Este 15 Este 0 -- -- 81
2018-03-29 09:00:00 7.2 5 Sudeste 13 Este 0 -- -- 84
2018-03-29 08:00:00 6.1 8 Sudeste 12 Este 0 -- -- 86
2018-03-29 07:00:00 7 2 Sur 10 Oeste 0 -- -- 81
2018-03-29 06:00:00 7.2 5 Noroeste 10 Norte 0 -- -- 80
2018-03-29 05:00:00 7.8 3 Noroeste 14 Noroeste 0 -- -- 79
2018-03-29 04:00:00 8.7 7 Noroeste 15 Oeste 0 -- -- 78
2018-03-29 03:00:00 8.8 2 Norte 17 Noroeste 0 -- -- 81
2018-03-29 02:00:00 9 8 Noroeste 19 Noroeste 0.4 -- -- 84
2018-03-29 01:00:00 9.8 10 Noroeste 24 Noroeste 0 -- -- 80
2018-03-29 00:00:00 10.8 6 Nordeste 13 Nordeste 0 -- -- 72
2018-03-28 23:00:00 11.1 3 Noroeste 15 Norte 0 -- -- 74
2018-03-28 22:00:00 11.5 8 Nordeste 19 Este 0 -- -- 73
2018-03-28 21:00:00 12.9 7 Norte 25 Noroeste 0 -- -- 67
2018-03-28 20:00:00 16.7 2 Noroeste 12 Nordeste 0 -- -- 48
2018-03-28 19:00:00 18 7 Nordeste 19 Nordeste 0 -- -- 45
2018-03-28 18:00:00 18.8 10 Nordeste 17 Nordeste 0 -- -- 43
2018-03-28 17:00:00 18.8 9 Nordeste 18 Nordeste 0 -- -- 44
2018-03-28 16:00:00 18.4 11 Nordeste 20 Nordeste 0 -- -- 44
2018-03-28 15:00:00 18.3 13 Nordeste 20 Nordeste 0 -- -- 50
2018-03-28 14:00:00 16.9 6 Norte 12 Norte 0 -- -- 50
2018-03-28 13:00:00 14.7 4 Nordeste 9 Este 0 -- -- 63
2018-03-28 12:00:00 11.1 5 Nordeste 8 Nordeste 0 -- -- 80
2018-03-28 11:00:00 8.6 5 Nordeste 8 Nordeste 0 -- -- 87
2018-03-28 10:00:00 6.7 4 Este 9 Este 0 -- -- 92
2018-03-28 09:00:00 4 3 Sudeste 9 Este 0 -- -- 97
2018-03-28 08:00:00 3.8 0 Calma 13 Sudeste 0 -- -- 97
2018-03-28 07:00:00 3.7 5 Oeste 8 Sudoeste 0 -- -- 95
2018-03-28 06:00:00 4.9 0 Calma 6 Este 0 -- -- 93
2018-03-28 05:00:00 5.8 2 Sur 6 Sur 0 -- -- 92
2018-03-28 04:00:00 7 0 Calma 6 Este 0 -- -- 90
2018-03-28 03:00:00 8 3 Sudeste 5 Sudeste 0 -- -- 86
2018-03-28 02:00:00 9.8 2 Este 14 Este 0 -- -- 83
2018-03-28 01:00:00 10.1 8 Sudeste 17 Nordeste 0 -- -- 83
2018-03-28 00:00:00 10.9 10 Nordeste 28 Nordeste 0 -- -- 81
2018-03-27 23:00:00 11.8 12 Este 21 Nordeste 0 -- -- 78
2018-03-27 22:00:00 11.9 3 Sur 21 Norte 0 -- -- 79
2018-03-27 21:00:00 12.5 10 Nordeste 22 Nordeste 0 -- -- 77
2018-03-27 20:00:00 12.8 8 Nordeste 19 Nordeste 0 -- -- 77
2018-03-27 19:00:00 13.6 13 Nordeste 23 Norte 0 -- -- 75
2018-03-27 18:00:00 14.8 18 Nordeste 33 Nordeste 0 -- -- 68
2018-03-27 17:00:00 14.8 15 Norte 30 Norte 0 -- -- 67
2018-03-27 16:00:00 13.4 14 Norte 27 Norte 0 -- -- 73
2018-03-27 15:00:00 12.9 14 Norte 36 Norte 0 -- -- 73
2018-03-27 14:00:00 12.9 15 Norte 33 Noroeste 0 -- -- 72
2018-03-27 13:00:00 13.3 18 Noroeste 32 Nordeste 0 -- -- 69
2018-03-27 12:00:00 13.4 12 Norte 34 Nordeste 0 -- -- 69
2018-03-27 11:00:00 12.4 11 Noroeste 19 Norte 0 -- -- 72
2018-03-27 10:00:00 9.6 2 Este 7 Nordeste 0 -- -- 80
2018-03-27 09:00:00 6.3 0 Calma 7 Sudoeste 0 -- -- 90
2018-03-27 08:00:00 4.7 3 Sudeste 6 Sur 0 -- -- 89
2018-03-27 07:00:00 5.8 4 Sudeste 9 Sudeste 0 -- -- 88
2018-03-27 06:00:00 6.7 4 Sudeste 6 Sudeste 0 -- -- 85
2018-03-27 05:00:00 7.1 0 Calma 9 Noroeste 0 -- -- 78
2018-03-27 04:00:00 7.3 7 Oeste 18 Oeste 0 -- -- 76
2018-03-27 03:00:00 7.1 11 Noroeste 18 Noroeste 0 -- -- 75
2018-03-27 02:00:00 6.5 7 Noroeste 16 Noroeste 0 -- -- 78
2018-03-27 01:00:00 6.2 5 Norte 14 Oeste 0 -- -- 81
2018-03-27 00:00:00 5.3 8 Sudoeste 12 Sudoeste 0 -- -- 85
2018-03-26 23:00:00 5.9 7 Noroeste 21 Noroeste 0 -- -- 83
2018-03-26 22:00:00 6.5 10 Noroeste 27 Norte 0 -- -- 83
2018-03-26 21:00:00 7 9 Noroeste 22 Norte 0 -- -- 77
2018-03-26 20:00:00 7.5 12 Norte 39 Noroeste 0 -- -- 73
2018-03-26 19:00:00 9.2 19 Norte 38 Norte 0 -- -- 67
2018-03-26 18:00:00 10.2 20 Norte 42 Noroeste 0 -- -- 61
2018-03-26 17:00:00 10.9 17 Norte 45 Norte 0 -- -- 56
2018-03-26 16:00:00 10.5 16 Norte 36 Norte 0 -- -- 58
2018-03-26 15:00:00 11.5 18 Norte 36 Norte 0 -- -- 54
2018-03-26 14:00:00 9.5 15 Norte 42 Norte 0 -- -- 53
2018-03-26 13:00:00 8.8 18 Noroeste 41 Norte 0 -- -- 62
2018-03-26 12:00:00 8.4 18 Noroeste 42 Norte 0 -- -- 69
2018-03-26 11:00:00 7.5 18 Noroeste 36 Noroeste 0 -- -- 76
2018-03-26 10:00:00 7.4 19 Noroeste 35 Noroeste 0 -- -- 79
2018-03-26 09:00:00 7.9 14 Norte 36 Norte 0 -- -- 77
2018-03-26 08:00:00 7.6 17 Noroeste 32 Norte 0 -- -- 77
2018-03-26 07:00:00 8 14 Noroeste 28 Noroeste 0 -- -- 76
2018-03-26 06:00:00 8 10 Noroeste 27 Oeste 0 -- -- 76
2018-03-26 05:00:00 7.7 13 Norte 24 Norte 0 -- -- 78
2018-03-26 04:00:00 7.2 14 Noroeste 29 Noroeste 0 -- -- 81
2018-03-26 03:00:00 7.2 17 Noroeste 32 Noroeste 0 -- -- 80
2018-03-26 02:00:00 6.7 12 Noroeste 24 Noroeste 0 -- -- 82
2018-03-26 01:00:00 6.6 8 Oeste 16 Oeste 0 -- -- 81
2018-03-26 00:00:00 7 6 Noroeste 14 Oeste 0 -- -- 77
2018-03-25 23:00:00 6.9 4 Noroeste 7 Noroeste 0 -- -- 76
2018-03-25 22:00:00 7.2 3 Norte 17 Noroeste 0 -- -- 73
2018-03-25 21:00:00 7.6 7 Noroeste 24 Noroeste 0 -- -- 71
2018-03-25 20:00:00 8.4 10 Noroeste 26 Norte 0 -- -- 69
2018-03-25 19:00:00 8.7 12 Norte 27 Nordeste 0 -- -- 69
2018-03-25 18:00:00 10.1 12 Norte 34 Noroeste 0 -- -- 65
2018-03-25 17:00:00 11.2 19 Noroeste 30 Noroeste 0 -- -- 59
2018-03-25 16:00:00 10.4 15 Noroeste 27 Noroeste 0 -- -- 62
2018-03-25 15:00:00 9.2 21 Noroeste 28 Noroeste 0 -- -- 67
2018-03-25 14:00:00 9.3 17 Noroeste 30 Noroeste 0 -- -- 66
2018-03-25 13:00:00 9.5 12 Noroeste 25 Noroeste 0 -- -- 63
2018-03-25 12:00:00 8.4 9 Noroeste 17 Noroeste 0 -- -- 68
2018-03-25 11:00:00 7.4 3 Norte 8 Noroeste 0 -- -- 75
2018-03-25 10:00:00 5.2 4 Noroeste 6 Oeste 0 -- -- 86
2018-03-25 09:00:00 4 3 Nordeste 7 Este 0 -- -- 89
2018-03-25 08:00:00 3.7 5 Sur 10 Sur 0 -- -- 87
2018-03-25 07:00:00 3.6 2 Oeste 11 Sudoeste 0 -- -- 86
2018-03-25 06:00:00 3.2 4 Sudoeste 11 Oeste 0 -- -- 84
2018-03-25 05:00:00 3.8 10 Sudoeste 13 Sudoeste 0.2 -- -- 85
2018-03-25 03:00:00 5.6 7 Oeste 19 Oeste 0 -- -- 77
2018-03-25 01:00:00 6.1 13 Oeste 24 Oeste 0 -- -- 76
2018-03-25 00:00:00 6.5 12 Oeste 22 Oeste 0 -- -- 76
2018-03-24 23:00:00 6.5 7 Sudoeste 13 Oeste 0 -- -- 76
2018-03-24 22:00:00 7.1 6 Oeste 19 Noroeste 0 -- -- 71
2018-03-24 21:00:00 7.1 12 Oeste 20 Oeste 0 -- -- 70
2018-03-24 20:00:00 7.6 11 Oeste 31 Noroeste 0 -- -- 69
2018-03-24 19:00:00 8.7 12 Noroeste 22 Oeste 0 -- -- 71
2018-03-24 18:00:00 8.9 4 Noroeste 30 Oeste 0.2 -- -- 76
2018-03-24 17:00:00 10.7 6 Oeste 51 Noroeste 0 -- -- 63
2018-03-24 16:00:00 10.6 17 Noroeste 29 Oeste 0 -- -- 56
2018-03-24 15:00:00 10.8 8 Noroeste 31 Noroeste 0 -- -- 57
2018-03-24 14:00:00 10.6 19 Noroeste 39 Oeste 0 -- -- 57
2018-03-24 13:00:00 9.7 13 Noroeste 28 Noroeste 0 -- -- 59
2018-03-24 12:00:00 8.5 17 Noroeste 27 Noroeste 0 -- -- 63
2018-03-24 11:00:00 7.2 8 Oeste 17 Noroeste 0 -- -- 69
2018-03-24 10:00:00 5.7 11 Noroeste 18 Noroeste 0 -- -- 77
2018-03-24 09:00:00 3.7 8 Oeste 17 Noroeste 0 -- -- 84
2018-03-24 08:00:00 2.6 4 Sudoeste 12 Sudoeste 0 -- -- 88
2018-03-24 07:00:00 3.1 3 Sur 12 Sur 0 -- -- 86
2018-03-24 06:00:00 3.6 4 Este 15 Norte 0 -- -- 85
2018-03-24 05:00:00 4.3 7 Norte 25 Noroeste 0 -- -- 83
2018-03-24 04:00:00 4.1 9 Este 18 Nordeste 0.2 -- -- 87
2018-03-24 03:00:00 4.9 6 Norte 34 Norte 1.4 -- -- 87
2018-03-24 02:00:00 6.3 6 Noroeste 33 Nordeste 2.4 -- -- 85
2018-03-24 01:00:00 8.6 6 Este 11 Sur 2.4 -- -- 93
2018-03-24 00:00:00 9.1 8 Oeste 14 Oeste 3.4 -- -- 90
2018-03-23 23:00:00 10.3 11 Sur 27 Sudeste 0 -- -- 82
2018-03-23 22:00:00 9.3 5 Sudoeste 19 Sur 0 -- -- 82
2018-03-23 21:00:00 9.6 4 Oeste 10 Oeste 0 -- -- 80
2018-03-23 20:00:00 10.4 4 Oeste 8 Oeste 0 -- -- 76
2018-03-23 19:00:00 11.5 2 Noroeste 7 Este 0 -- -- 73
2018-03-23 18:00:00 12.2 7 Este 15 Este 0 -- -- 70
2018-03-23 17:00:00 12.7 10 Nordeste 17 Nordeste 0 -- -- 68
2018-03-23 16:00:00 13.3 4 Nordeste 12 Este 0 -- -- 64
2018-03-23 15:00:00 13 6 Este 14 Nordeste 0 -- -- 63
2018-03-23 14:00:00 12.8 8 Este 18 Este 0 -- -- 61
2018-03-23 13:00:00 12.7 7 Este 14 Este 0 -- -- 52
2018-03-23 12:00:00 10.1 6 Este 10 Este 0 -- -- 52
2018-03-23 11:00:00 7.6 6 Nordeste 10 Este 0 -- -- 57
2018-03-23 10:00:00 3.1 3 Nordeste 6 Este 0 -- -- 64
2018-03-23 09:00:00 1.2 0 Calma 5 Nordeste 0 -- -- 70
2018-03-23 08:00:00 0.3 2 Sudoeste 8 Sudeste 0 -- -- 79
2018-03-23 07:00:00 0.3 0 Calma 8 Sudeste 0 -- -- 73
2018-03-23 06:00:00 0.6 4 Sudeste 15 Sudeste 0 -- -- 62
2018-03-23 05:00:00 -0.4 6 Sudeste 13 Sudeste 0 -- -- 69
2018-03-23 04:00:00 0.8 3 Este 14 Sur 0 -- -- 66
2018-03-23 03:00:00 1.4 5 Sur 15 Este 0 -- -- 63
2018-03-23 02:00:00 2.8 8 Nordeste 20 Noroeste 0 -- -- 58
2018-03-23 01:00:00 3 4 Nordeste 17 Nordeste 0 -- -- 59
2018-03-23 00:00:00 3.5 8 Norte 20 Nordeste 0 -- -- 57